sensor_id;sensor_type;location;lat;lon;timestamp;pressure;altitude;pressure_sealevel;temperature;humidity
46944;BME280;32678;43.852;25.952;2022-12-18T00:03:30;101999.69;;;6.89;85.43
46944;BME280;32678;43.852;25.952;2022-12-18T00:08:29;101989.25;;;6.86;84.75
46944;BME280;32678;43.852;25.952;2022-12-18T00:13:28;101991.88;;;6.74;84.50
46944;BME280;32678;43.852;25.952;2022-12-18T00:18:27;102010.94;;;6.64;84.66
46944;BME280;32678;43.852;25.952;2022-12-18T00:23:25;102015.25;;;6.56;84.96
46944;BME280;32678;43.852;25.952;2022-12-18T00:28:22;102026.56;;;6.63;85.07
46944;BME280;32678;43.852;25.952;2022-12-18T00:33:19;102028.38;;;6.88;83.63
46944;BME280;32678;43.852;25.952;2022-12-18T00:38:16;102045.72;;;6.72;83.52
46944;BME280;32678;43.852;25.952;2022-12-18T00:43:14;102050.00;;;6.61;83.14
46944;BME280;32678;43.852;25.952;2022-12-18T00:48:11;102059.50;;;6.50;83.67
46944;BME280;32678;43.852;25.952;2022-12-18T00:53:08;102057.72;;;6.41;83.66
46944;BME280;32678;43.852;25.952;2022-12-18T00:58:06;102068.28;;;6.67;82.39
46944;BME280;32678;43.852;25.952;2022-12-18T01:03:05;102069.13;;;6.62;82.36
46944;BME280;32678;43.852;25.952;2022-12-18T01:08:02;102067.31;;;6.44;83.28
46944;BME280;32678;43.852;25.952;2022-12-18T01:12:59;102073.44;;;6.57;83.25
46944;BME280;32678;43.852;25.952;2022-12-18T01:17:56;102075.22;;;6.64;82.46
46944;BME280;32678;43.852;25.952;2022-12-18T01:22:56;102081.31;;;6.70;81.89
46944;BME280;32678;43.852;25.952;2022-12-18T01:27:53;102076.09;;;6.75;81.48
46944;BME280;32678;43.852;25.952;2022-12-18T01:32:51;102071.66;;;6.46;82.36
46944;BME280;32678;43.852;25.952;2022-12-18T01:37:49;102083.78;;;6.38;83.51
46944;BME280;32678;43.852;25.952;2022-12-18T01:42:54;102073.13;;;6.00;83.12
46944;BME280;32678;43.852;25.952;2022-12-18T01:47:52;102075.75;;;6.00;83.26
46944;BME280;32678;43.852;25.952;2022-12-18T01:52:50;102081.75;;;5.90;83.16
46944;BME280;32678;43.852;25.952;2022-12-18T01:57:48;102079.25;;;6.12;82.33
46944;BME280;32678;43.852;25.952;2022-12-18T02:02:47;102075.72;;;5.99;82.37
46944;BME280;32678;43.852;25.952;2022-12-18T02:07:45;102097.41;;;5.95;82.15
46944;BME280;32678;43.852;25.952;2022-12-18T02:12:48;102093.97;;;6.06;81.54
46944;BME280;32678;43.852;25.952;2022-12-18T02:17:47;102099.28;;;6.22;81.40
46944;BME280;32678;43.852;25.952;2022-12-18T02:22:50;102100.84;;;5.91;82.95
46944;BME280;32678;43.852;25.952;2022-12-18T02:27:52;102116.28;;;5.74;83.02
46944;BME280;32678;43.852;25.952;2022-12-18T02:32:52;102110.91;;;5.56;84.48
46944;BME280;32678;43.852;25.952;2022-12-18T02:37:49;102129.97;;;5.52;84.89
46944;BME280;32678;43.852;25.952;2022-12-18T02:42:51;102148.09;;;5.46;85.09
46944;BME280;32678;43.852;25.952;2022-12-18T02:47:51;102152.63;;;5.65;83.85
46944;BME280;32678;43.852;25.952;2022-12-18T02:52:51;102169.22;;;5.79;82.86
46944;BME280;32678;43.852;25.952;2022-12-18T02:57:54;102185.84;;;5.92;81.82
46944;BME280;32678;43.852;25.952;2022-12-18T03:02:57;102195.03;;;5.56;82.91
46944;BME280;32678;43.852;25.952;2022-12-18T03:08:01;102203.78;;;5.64;82.40
46944;BME280;32678;43.852;25.952;2022-12-18T03:13:04;102222.53;;;5.35;82.84
46944;BME280;32678;43.852;25.952;2022-12-18T03:18:06;102227.56;;;5.21;84.12
46944;BME280;32678;43.852;25.952;2022-12-18T03:23:06;102214.59;;;5.24;84.09
46944;BME280;32678;43.852;25.952;2022-12-18T03:28:05;102228.69;;;5.41;83.86
46944;BME280;32678;43.852;25.952;2022-12-18T03:33:07;102239.03;;;5.37;84.03
46944;BME280;32678;43.852;25.952;2022-12-18T03:38:07;102247.94;;;5.55;83.42
46944;BME280;32678;43.852;25.952;2022-12-18T03:43:10;102256.31;;;5.33;82.71
46944;BME280;32678;43.852;25.952;2022-12-18T03:48:11;102255.22;;;5.13;82.58
46944;BME280;32678;43.852;25.952;2022-12-18T03:53:17;102275.22;;;5.20;82.44
46944;BME280;32678;43.852;25.952;2022-12-18T03:58:23;102284.59;;;5.07;82.94
46944;BME280;32678;43.852;25.952;2022-12-18T04:03:34;102285.88;;;4.76;84.02
46944;BME280;32678;43.852;25.952;2022-12-18T04:08:36;102284.88;;;4.68;84.45
46944;BME280;32678;43.852;25.952;2022-12-18T04:13:37;102291.84;;;4.71;83.94
46944;BME280;32678;43.852;25.952;2022-12-18T04:18:41;102293.63;;;4.75;83.40
46944;BME280;32678;43.852;25.952;2022-12-18T04:23:38;102289.22;;;4.68;84.89
46944;BME280;32678;43.852;25.952;2022-12-18T04:28:36;102285.59;;;4.60;84.61
46944;BME280;32678;43.852;25.952;2022-12-18T04:33:40;102304.91;;;4.74;83.79
46944;BME280;32678;43.852;25.952;2022-12-18T04:38:39;102312.75;;;4.78;84.70
46944;BME280;32678;43.852;25.952;2022-12-18T04:43:40;102330.34;;;4.96;84.08
46944;BME280;32678;43.852;25.952;2022-12-18T04:48:37;102337.34;;;5.00;83.17
46944;BME280;32678;43.852;25.952;2022-12-18T04:53:34;102346.75;;;4.94;83.19
46944;BME280;32678;43.852;25.952;2022-12-18T04:58:33;102347.38;;;4.79;82.86
46944;BME280;32678;43.852;25.952;2022-12-18T05:03:33;102376.06;;;4.85;81.63
46944;BME280;32678;43.852;25.952;2022-12-18T05:08:30;102390.53;;;4.68;83.27
46944;BME280;32678;43.852;25.952;2022-12-18T05:13:29;102396.44;;;4.61;83.11
46944;BME280;32678;43.852;25.952;2022-12-18T05:18:26;102397.38;;;4.64;82.61
46944;BME280;32678;43.852;25.952;2022-12-18T05:23:24;102408.00;;;4.76;82.80
46944;BME280;32678;43.852;25.952;2022-12-18T05:28:21;102404.78;;;4.91;81.29
46944;BME280;32678;43.852;25.952;2022-12-18T05:33:21;102415.28;;;4.99;80.32
46944;BME280;32678;43.852;25.952;2022-12-18T05:38:19;102416.56;;;4.71;82.39
46944;BME280;32678;43.852;25.952;2022-12-18T05:43:17;102435.63;;;4.71;82.81
46944;BME280;32678;43.852;25.952;2022-12-18T05:48:17;102443.69;;;4.87;81.86
46944;BME280;32678;43.852;25.952;2022-12-18T05:53:18;102442.19;;;5.01;80.67
46944;BME280;32678;43.852;25.952;2022-12-18T05:58:19;102458.44;;;4.88;80.45
46944;BME280;32678;43.852;25.952;2022-12-18T06:03:16;102447.03;;;4.81;80.71
46944;BME280;32678;43.852;25.952;2022-12-18T06:08:13;102456.53;;;4.79;82.03
46944;BME280;32678;43.852;25.952;2022-12-18T06:13:10;102483.38;;;4.78;81.99
46944;BME280;32678;43.852;25.952;2022-12-18T06:18:07;102470.47;;;4.84;80.10
46944;BME280;32678;43.852;25.952;2022-12-18T06:23:04;102485.34;;;4.91;80.19
46944;BME280;32678;43.852;25.952;2022-12-18T06:28:01;102498.03;;;4.74;81.48
46944;BME280;32678;43.852;25.952;2022-12-18T06:32:58;102515.06;;;5.05;81.35
46944;BME280;32678;43.852;25.952;2022-12-18T06:37:56;102525.50;;;5.08;80.42
46944;BME280;32678;43.852;25.952;2022-12-18T06:42:52;102531.22;;;4.89;80.75
46944;BME280;32678;43.852;25.952;2022-12-18T06:47:50;102533.13;;;4.53;82.17
46944;BME280;32678;43.852;25.952;2022-12-18T06:52:47;102536.03;;;4.69;81.21
46944;BME280;32678;43.852;25.952;2022-12-18T06:57:45;102541.81;;;5.00;80.53
46944;BME280;32678;43.852;25.952;2022-12-18T07:02:41;102559.88;;;4.94;80.73
46944;BME280;32678;43.852;25.952;2022-12-18T07:07:38;102571.25;;;4.99;79.95
46944;BME280;32678;43.852;25.952;2022-12-18T07:12:35;102585.19;;;5.02;79.47
46944;BME280;32678;43.852;25.952;2022-12-18T07:17:36;102589.03;;;4.77;80.14
46944;BME280;32678;43.852;25.952;2022-12-18T07:22:33;102602.69;;;4.67;80.54
46944;BME280;32678;43.852;25.952;2022-12-18T07:27:30;102611.59;;;4.80;80.96
46944;BME280;32678;43.852;25.952;2022-12-18T07:32:26;102611.38;;;4.69;80.86
46944;BME280;32678;43.852;25.952;2022-12-18T07:37:27;102619.13;;;4.66;81.12
46944;BME280;32678;43.852;25.952;2022-12-18T07:42:24;102628.03;;;4.79;80.36
46944;BME280;32678;43.852;25.952;2022-12-18T07:47:28;102634.16;;;4.81;80.10
46944;BME280;32678;43.852;25.952;2022-12-18T07:52:29;102626.31;;;4.78;80.90
46944;BME280;32678;43.852;25.952;2022-12-18T07:57:26;102633.47;;;4.49;82.46
46944;BME280;32678;43.852;25.952;2022-12-18T08:02:43;102642.56;;;4.69;82.21
46944;BME280;32678;43.852;25.952;2022-12-18T08:07:41;102638.69;;;4.91;81.16
46944;BME280;32678;43.852;25.952;2022-12-18T08:12:42;102639.28;;;4.78;81.45
46944;BME280;32678;43.852;25.952;2022-12-18T08:17:39;102645.97;;;5.07;80.24
46944;BME280;32678;43.852;25.952;2022-12-18T08:22:36;102654.22;;;4.88;79.83
46944;BME280;32678;43.852;25.952;2022-12-18T08:27:35;102658.13;;;5.10;80.28
46944;BME280;32678;43.852;25.952;2022-12-18T08:32:32;102661.69;;;5.15;80.93
46944;BME280;32678;43.852;25.952;2022-12-18T08:37:31;102663.00;;;5.38;79.38
46944;BME280;32678;43.852;25.952;2022-12-18T08:42:28;102669.69;;;5.72;77.81
46944;BME280;32678;43.852;25.952;2022-12-18T08:47:45;102662.09;;;5.84;75.91
46944;BME280;32678;43.852;25.952;2022-12-18T08:52:43;102675.00;;;5.78;73.41
46944;BME280;32678;43.852;25.952;2022-12-18T08:57:41;102668.56;;;5.58;75.62
46944;BME280;32678;43.852;25.952;2022-12-18T09:02:47;102660.75;;;5.56;75.00
46944;BME280;32678;43.852;25.952;2022-12-18T09:07:44;102669.06;;;5.37;76.47
46944;BME280;32678;43.852;25.952;2022-12-18T09:12:42;102682.00;;;5.34;75.71
46944;BME280;32678;43.852;25.952;2022-12-18T09:17:39;102682.25;;;5.46;75.76
46944;BME280;32678;43.852;25.952;2022-12-18T09:22:36;102687.63;;;5.55;76.03
46944;BME280;32678;43.852;25.952;2022-12-18T09:27:33;102681.44;;;5.50;76.27
46944;BME280;32678;43.852;25.952;2022-12-18T09:32:30;102680.09;;;5.71;76.43
46944;BME280;32678;43.852;25.952;2022-12-18T09:37:29;102682.63;;;5.67;74.62
46944;BME280;32678;43.852;25.952;2022-12-18T09:42:26;102682.00;;;5.81;75.44
46944;BME280;32678;43.852;25.952;2022-12-18T09:47:24;102668.97;;;6.32;72.25
46944;BME280;32678;43.852;25.952;2022-12-18T09:52:25;102673.97;;;5.68;74.36
46944;BME280;32678;43.852;25.952;2022-12-18T09:57:29;102672.63;;;5.89;73.83
46944;BME280;32678;43.852;25.952;2022-12-18T10:02:30;102679.91;;;6.09;72.93
46944;BME280;32678;43.852;25.952;2022-12-18T10:07:32;102678.03;;;6.02;72.17
46944;BME280;32678;43.852;25.952;2022-12-18T10:12:36;102681.34;;;5.91;73.15
46944;BME280;32678;43.852;25.952;2022-12-18T10:17:39;102677.13;;;5.99;73.71
46944;BME280;32678;43.852;25.952;2022-12-18T10:22:40;102689.72;;;6.27;73.50
46944;BME280;32678;43.852;25.952;2022-12-18T10:27:45;102684.84;;;6.48;72.60
46944;BME280;32678;43.852;25.952;2022-12-18T10:32:44;102700.00;;;6.75;71.93
46944;BME280;32678;43.852;25.952;2022-12-18T10:43:04;102705.44;;;6.92;70.83
46944;BME280;32678;43.852;25.952;2022-12-18T10:48:01;102702.84;;;6.95;70.79
46944;BME280;32678;43.852;25.952;2022-12-18T10:53:00;102717.81;;;7.08;70.90
46944;BME280;32678;43.852;25.952;2022-12-18T10:58:12;102717.94;;;7.17;71.21
46944;BME280;32678;43.852;25.952;2022-12-18T11:03:28;102724.75;;;7.06;70.90
46944;BME280;32678;43.852;25.952;2022-12-18T11:08:26;102728.31;;;7.13;70.79
46944;BME280;32678;43.852;25.952;2022-12-18T11:13:24;102728.34;;;7.16;70.63
46944;BME280;32678;43.852;25.952;2022-12-18T11:18:24;102735.41;;;7.23;70.20
46944;BME280;32678;43.852;25.952;2022-12-18T11:23:33;102741.53;;;7.26;69.46
46944;BME280;32678;43.852;25.952;2022-12-18T11:28:35;102741.53;;;7.29;69.18
46944;BME280;32678;43.852;25.952;2022-12-18T11:33:33;102745.97;;;7.35;69.65
46944;BME280;32678;43.852;25.952;2022-12-18T11:38:30;102745.78;;;7.18;68.15
46944;BME280;32678;43.852;25.952;2022-12-18T11:43:31;102739.84;;;7.31;69.10
46944;BME280;32678;43.852;25.952;2022-12-18T11:48:32;102741.34;;;7.13;67.53
46944;BME280;32678;43.852;25.952;2022-12-18T11:53:31;102753.00;;;6.74;69.23
46944;BME280;32678;43.852;25.952;2022-12-18T11:58:32;102745.50;;;6.97;69.52
46944;BME280;32678;43.852;25.952;2022-12-18T12:03:43;102759.94;;;6.75;68.81
46944;BME280;32678;43.852;25.952;2022-12-18T12:08:48;102754.94;;;6.90;69.40
46944;BME280;32678;43.852;25.952;2022-12-18T12:13:52;102757.13;;;6.62;69.67
46944;BME280;32678;43.852;25.952;2022-12-18T12:18:59;102757.91;;;6.56;69.59
46944;BME280;32678;43.852;25.952;2022-12-18T12:24:07;102751.59;;;6.39;70.90
46944;BME280;32678;43.852;25.952;2022-12-18T12:29:19;102757.53;;;6.32;71.12
46944;BME280;32678;43.852;25.952;2022-12-18T12:34:21;102753.25;;;6.34;71.58
46944;BME280;32678;43.852;25.952;2022-12-18T12:39:20;102755.47;;;6.67;71.31
46944;BME280;32678;43.852;25.952;2022-12-18T12:44:19;102759.69;;;6.57;70.40
46944;BME280;32678;43.852;25.952;2022-12-18T12:49:17;102766.59;;;6.55;71.35
46944;BME280;32678;43.852;25.952;2022-12-18T12:54:19;102769.75;;;6.91;71.24
46944;BME280;32678;43.852;25.952;2022-12-18T12:59:20;102779.19;;;6.85;70.20
46944;BME280;32678;43.852;25.952;2022-12-18T13:04:21;102773.50;;;7.12;70.21
46944;BME280;32678;43.852;25.952;2022-12-18T13:09:20;102779.03;;;6.73;69.90
46944;BME280;32678;43.852;25.952;2022-12-18T13:14:25;102792.56;;;7.06;70.28
46944;BME280;32678;43.852;25.952;2022-12-18T13:19:23;102796.25;;;7.22;70.02
46944;BME280;32678;43.852;25.952;2022-12-18T13:24:27;102809.38;;;7.29;69.80
46944;BME280;32678;43.852;25.952;2022-12-18T13:34:39;102834.66;;;7.32;68.11
46944;BME280;32678;43.852;25.952;2022-12-18T13:39:39;102835.44;;;7.26;68.91
46944;BME280;32678;43.852;25.952;2022-12-18T13:44:36;102844.16;;;7.28;68.18
46944;BME280;32678;43.852;25.952;2022-12-18T13:49:37;102843.34;;;7.31;68.08
46944;BME280;32678;43.852;25.952;2022-12-18T13:54:36;102856.50;;;7.40;67.69
46944;BME280;32678;43.852;25.952;2022-12-18T13:59:35;102861.72;;;7.40;68.16
46944;BME280;32678;43.852;25.952;2022-12-18T14:04:34;102885.00;;;7.25;68.21
46944;BME280;32678;43.852;25.952;2022-12-18T14:09:34;102882.50;;;7.34;68.16
46944;BME280;32678;43.852;25.952;2022-12-18T14:14:33;102888.25;;;7.10;68.60
46944;BME280;32678;43.852;25.952;2022-12-18T14:19:35;102892.44;;;7.01;68.81
46944;BME280;32678;43.852;25.952;2022-12-18T14:24:32;102889.88;;;7.02;69.56
46944;BME280;32678;43.852;25.952;2022-12-18T14:29:31;102890.75;;;7.03;69.48
46944;BME280;32678;43.852;25.952;2022-12-18T14:34:28;102900.25;;;6.99;69.89
46944;BME280;32678;43.852;25.952;2022-12-18T14:39:25;102904.25;;;6.77;70.42
46944;BME280;32678;43.852;25.952;2022-12-18T14:44:23;102913.34;;;7.02;70.19
46944;BME280;32678;43.852;25.952;2022-12-18T14:49:44;102893.47;;;7.10;69.89
46944;BME280;32678;43.852;25.952;2022-12-18T14:54:45;102913.53;;;7.14;69.63
46944;BME280;32678;43.852;25.952;2022-12-18T14:59:45;102918.03;;;7.23;69.11
46944;BME280;32678;43.852;25.952;2022-12-18T15:04:41;102928.66;;;7.36;69.22
46944;BME280;32678;43.852;25.952;2022-12-18T15:10:00;102935.63;;;7.36;69.00
46944;BME280;32678;43.852;25.952;2022-12-18T15:14:57;102926.63;;;7.19;69.34
46944;BME280;32678;43.852;25.952;2022-12-18T15:19:58;102939.56;;;7.11;69.81
46944;BME280;32678;43.852;25.952;2022-12-18T15:24:57;102949.13;;;7.11;70.88
46944;BME280;32678;43.852;25.952;2022-12-18T15:30:15;102954.13;;;6.97;72.50
46944;BME280;32678;43.852;25.952;2022-12-18T15:35:21;102935.91;;;6.49;76.62
46944;BME280;32678;43.852;25.952;2022-12-18T15:40:22;102956.31;;;6.28;80.81
46944;BME280;32678;43.852;25.952;2022-12-18T15:45:21;102962.75;;;6.46;81.73
46944;BME280;32678;43.852;25.952;2022-12-18T15:50:19;102972.06;;;6.34;83.74
46944;BME280;32678;43.852;25.952;2022-12-18T15:55:17;102952.00;;;5.88;85.92
46944;BME280;32678;43.852;25.952;2022-12-18T16:00:37;102977.03;;;6.20;85.65
46944;BME280;32678;43.852;25.952;2022-12-18T16:05:37;102981.03;;;6.06;86.55
46944;BME280;32678;43.852;25.952;2022-12-18T16:10:36;102981.25;;;6.15;85.94
46944;BME280;32678;43.852;25.952;2022-12-18T16:15:34;102985.03;;;6.31;86.07
46944;BME280;32678;43.852;25.952;2022-12-18T16:20:32;102992.13;;;5.96;87.01
46944;BME280;32678;43.852;25.952;2022-12-18T16:25:31;103001.13;;;6.12;86.17
46944;BME280;32678;43.852;25.952;2022-12-18T16:30:29;103022.94;;;5.42;88.83
46944;BME280;32678;43.852;25.952;2022-12-18T16:35:34;103052.19;;;5.33;85.80
46944;BME280;32678;43.852;25.952;2022-12-18T16:40:33;103052.97;;;5.29;84.99
46944;BME280;32678;43.852;25.952;2022-12-18T16:45:52;103047.03;;;5.35;84.48
46944;BME280;32678;43.852;25.952;2022-12-18T16:50:57;103047.25;;;5.80;83.21
46944;BME280;32678;43.852;25.952;2022-12-18T16:55:58;103050.19;;;5.56;83.01
46944;BME280;32678;43.852;25.952;2022-12-18T17:00:57;103062.94;;;5.81;82.89
46944;BME280;32678;43.852;25.952;2022-12-18T17:06:02;103077.66;;;5.81;82.33
46944;BME280;32678;43.852;25.952;2022-12-18T17:11:02;103078.75;;;5.89;81.72
46944;BME280;32678;43.852;25.952;2022-12-18T17:16:01;103076.19;;;5.92;80.94
46944;BME280;32678;43.852;25.952;2022-12-18T17:20:59;103104.56;;;6.17;79.63
46944;BME280;32678;43.852;25.952;2022-12-18T17:26:04;103112.28;;;6.13;79.48
46944;BME280;32678;43.852;25.952;2022-12-18T17:31:11;103108.63;;;6.04;77.85
46944;BME280;32678;43.852;25.952;2022-12-18T17:36:11;103119.63;;;5.58;77.66
46944;BME280;32678;43.852;25.952;2022-12-18T17:41:09;103121.47;;;5.30;76.91
46944;BME280;32678;43.852;25.952;2022-12-18T17:46:09;103142.59;;;5.75;74.01
46944;BME280;32678;43.852;25.952;2022-12-18T17:51:07;103156.25;;;5.33;72.21
46944;BME280;32678;43.852;25.952;2022-12-18T17:56:09;103165.28;;;5.14;71.62
46944;BME280;32678;43.852;25.952;2022-12-18T18:01:09;103180.16;;;5.20;70.81
46944;BME280;32678;43.852;25.952;2022-12-18T18:06:10;103189.88;;;4.96;70.83
46944;BME280;32678;43.852;25.952;2022-12-18T18:11:09;103196.25;;;5.37;69.35
46944;BME280;32678;43.852;25.952;2022-12-18T18:16:25;103183.00;;;5.29;68.92
46944;BME280;32678;43.852;25.952;2022-12-18T18:21:22;103180.63;;;5.37;67.61
46944;BME280;32678;43.852;25.952;2022-12-18T18:26:21;103193.88;;;4.85;69.01
46944;BME280;32678;43.852;25.952;2022-12-18T18:31:21;103209.16;;;5.04;68.91
46944;BME280;32678;43.852;25.952;2022-12-18T18:36:21;103196.00;;;4.98;67.77
46944;BME280;32678;43.852;25.952;2022-12-18T18:41:18;103209.22;;;5.05;67.81
46944;BME280;32678;43.852;25.952;2022-12-18T18:46:15;103208.44;;;5.08;67.92
46944;BME280;32678;43.852;25.952;2022-12-18T18:51:18;103212.31;;;5.22;67.52
46944;BME280;32678;43.852;25.952;2022-12-18T18:56:19;103210.75;;;5.29;67.13
46944;BME280;32678;43.852;25.952;2022-12-18T19:01:44;103231.53;;;4.99;68.00
46944;BME280;32678;43.852;25.952;2022-12-18T19:06:43;103244.66;;;5.02;67.53
46944;BME280;32678;43.852;25.952;2022-12-18T19:11:49;103264.91;;;4.84;67.98
46944;BME280;32678;43.852;25.952;2022-12-18T19:17:04;103282.44;;;4.91;69.25
46944;BME280;32678;43.852;25.952;2022-12-18T19:22:01;103295.34;;;4.59;69.92
46944;BME280;32678;43.852;25.952;2022-12-18T19:27:02;103317.69;;;5.09;69.37
46944;BME280;32678;43.852;25.952;2022-12-18T19:32:00;103311.97;;;5.21;69.19
46944;BME280;32678;43.852;25.952;2022-12-18T19:36:59;103307.22;;;4.79;71.14
46944;BME280;32678;43.852;25.952;2022-12-18T19:41:56;103309.53;;;4.97;72.13
46944;BME280;32678;43.852;25.952;2022-12-18T19:46:54;103310.41;;;4.98;73.37
46944;BME280;32678;43.852;25.952;2022-12-18T19:51:51;103307.09;;;5.32;73.45
46944;BME280;32678;43.852;25.952;2022-12-18T19:56:52;103301.25;;;5.10;75.84
46944;BME280;32678;43.852;25.952;2022-12-18T20:01:49;103314.84;;;5.30;76.02
46944;BME280;32678;43.852;25.952;2022-12-18T20:06:50;103306.84;;;4.67;78.62
46944;BME280;32678;43.852;25.952;2022-12-18T20:11:47;103318.38;;;4.50;81.21
46944;BME280;32678;43.852;25.952;2022-12-18T20:16:47;103316.44;;;4.70;81.36
46944;BME280;32678;43.852;25.952;2022-12-18T20:21:47;103326.91;;;4.45;82.04
46944;BME280;32678;43.852;25.952;2022-12-18T20:26:44;103328.84;;;4.26;82.67
46944;BME280;32678;43.852;25.952;2022-12-18T20:31:44;103328.91;;;4.03;84.65
46944;BME280;32678;43.852;25.952;2022-12-18T20:36:48;103344.47;;;4.03;85.02
46944;BME280;32678;43.852;25.952;2022-12-18T20:41:49;103349.44;;;3.71;86.33
46944;BME280;32678;43.852;25.952;2022-12-18T20:46:46;103344.41;;;4.01;86.20
46944;BME280;32678;43.852;25.952;2022-12-18T20:51:48;103357.34;;;4.23;82.94
46944;BME280;32678;43.852;25.952;2022-12-18T20:56:44;103341.75;;;4.49;80.99
46944;BME280;32678;43.852;25.952;2022-12-18T21:01:46;103358.53;;;4.58;79.44
46944;BME280;32678;43.852;25.952;2022-12-18T21:06:51;103353.69;;;4.69;77.06
46944;BME280;32678;43.852;25.952;2022-12-18T21:11:58;103368.16;;;4.88;73.93
46944;BME280;32678;43.852;25.952;2022-12-18T21:17:13;103355.22;;;4.91;72.51
46944;BME280;32678;43.852;25.952;2022-12-18T21:22:10;103365.56;;;4.89;71.03
46944;BME280;32678;43.852;25.952;2022-12-18T21:27:07;103368.78;;;5.09;69.82
46944;BME280;32678;43.852;25.952;2022-12-18T21:32:06;103365.28;;;4.80;69.30
46944;BME280;32678;43.852;25.952;2022-12-18T21:37:05;103375.56;;;5.04;69.38
46944;BME280;32678;43.852;25.952;2022-12-18T21:42:02;103386.16;;;5.10;69.22
46944;BME280;32678;43.852;25.952;2022-12-18T21:47:17;103384.09;;;4.98;68.54
46944;BME280;32678;43.852;25.952;2022-12-18T21:52:19;103388.03;;;5.14;68.87
46944;BME280;32678;43.852;25.952;2022-12-18T21:57:28;103378.00;;;4.98;68.93
46944;BME280;32678;43.852;25.952;2022-12-18T22:02:27;103383.63;;;4.85;69.45
46944;BME280;32678;43.852;25.952;2022-12-18T22:07:25;103392.69;;;4.70;70.07
46944;BME280;32678;43.852;25.952;2022-12-18T22:12:24;103396.38;;;4.77;68.94
46944;BME280;32678;43.852;25.952;2022-12-18T22:17:40;103386.94;;;4.54;68.04
46944;BME280;32678;43.852;25.952;2022-12-18T22:22:39;103390.75;;;4.90;67.79
46944;BME280;32678;43.852;25.952;2022-12-18T22:27:38;103386.38;;;4.62;67.33
46944;BME280;32678;43.852;25.952;2022-12-18T22:32:35;103409.09;;;4.95;66.65
46944;BME280;32678;43.852;25.952;2022-12-18T22:37:33;103400.53;;;4.99;66.96
46944;BME280;32678;43.852;25.952;2022-12-18T22:42:33;103402.53;;;4.54;65.76
46944;BME280;32678;43.852;25.952;2022-12-18T22:47:32;103407.59;;;4.51;65.19
46944;BME280;32678;43.852;25.952;2022-12-18T22:52:28;103403.09;;;4.70;65.78
46944;BME280;32678;43.852;25.952;2022-12-18T22:57:27;103407.16;;;4.13;67.15
46944;BME280;32678;43.852;25.952;2022-12-18T23:02:27;103397.72;;;4.41;67.81
46944;BME280;32678;43.852;25.952;2022-12-18T23:07:24;103400.59;;;4.23;68.78
46944;BME280;32678;43.852;25.952;2022-12-18T23:12:21;103396.53;;;4.31;68.96
46944;BME280;32678;43.852;25.952;2022-12-18T23:17:18;103389.91;;;4.39;68.84
46944;BME280;32678;43.852;25.952;2022-12-18T23:22:19;103390.25;;;4.24;69.92
46944;BME280;32678;43.852;25.952;2022-12-18T23:27:20;103391.56;;;4.62;69.48
46944;BME280;32678;43.852;25.952;2022-12-18T23:32:17;103400.53;;;4.21;70.92
46944;BME280;32678;43.852;25.952;2022-12-18T23:37:14;103394.56;;;4.24;70.67
46944;BME280;32678;43.852;25.952;2022-12-18T23:42:34;103411.25;;;4.07;72.60
46944;BME280;32678;43.852;25.952;2022-12-18T23:47:33;103414.31;;;4.20;71.62
46944;BME280;32678;43.852;25.952;2022-12-18T23:52:30;103420.41;;;3.73;69.51
46944;BME280;32678;43.852;25.952;2022-12-18T23:57:29;103426.81;;;3.83;68.79
